Thalassa Hellas — 9V2228 — position and weather

sailwx.info

Track history (hours):
 
Tides and Currents Weather Stations Pressure Air Temp Water Temp Dewpoint Dewpoint Depression Visibility Wind Speed Wind Dir Waves Ship Positions

Thalassa Hellas

Last reported at 2017-Nov-16 16:14 UTC. Time now 2017-Nov-24 16:54 UTC.
Position N 01°22' E 103°14'.
Warning: this ship's position is 8 days out of date.

Length 368 m; draft 14.2 m.

Type: Ship (hazmat cat A). MMSI: 563377000.

Date/timePositionNaut miles runAvg speedWind from/ knotsBaromVisibWave heightAir tempDewpointWater temp
2017-Nov-16 16:14N 01°22' E 103°14'518.5
2017-Nov-16 15:56N 01°19' E 103°18'818.2
2017-Nov-16 15:30N 01°15' E 103°25'917.6
2017-Nov-16 15:00N 01°12' E 103°33'713.4
2017-Nov-16 14:30N 01°11' E 103°40'612.9
2017-Nov-16 14:00N 01°10' E 103°46'714.0
2017-Nov-16 13:30N 01°12' E 103°52'815.3
2017-Nov-16 13:00N 01°15' E 103°59'816.3
2017-Nov-16 12:30N 01°16' E 104°08'714.5
2017-Nov-16 12:01N 01°18' E 104°15'  
2017-Nov-13 02:00N 22°35' E 114°17'0 0.0
2017-Nov-13 01:27N 22°35' E 114°17'0 0.0
2017-Nov-13 01:00N 22°35' E 114°17'0 0.0
2017-Nov-13 00:30N 22°35' E 114°17'0 0.0
2017-Nov-13 00:00N 22°35' E 114°17'0 0.1
2017-Nov-12 23:27N 22°35' E 114°17'0 0.1
2017-Nov-12 23:00N 22°35' E 114°17'0 0.1
2017-Nov-12 22:27N 22°35' E 114°17'0 0.1
2017-Nov-12 22:00N 22°35' E 114°17'0 0.0
2017-Nov-12 21:30N 22°35' E 114°17'0 0.0
2017-Nov-12 20:57N 22°35' E 114°17'0 0.0
2017-Nov-12 20:27N 22°35' E 114°17'0 0.1
2017-Nov-12 20:00N 22°35' E 114°17'3 5.3
2017-Nov-12 19:30N 22°34' E 114°19'612.4
2017-Nov-12 19:00N 22°31' E 114°25'5 9.9
2017-Nov-12 18:30N 22°27' E 114°28'611.5
2017-Nov-12 18:00N 22°21' E 114°31'2 4.5
2017-Nov-12 17:30N 22°20' E 114°33'5 9.4
2017-Nov-12 17:00N 22°17' E 114°36'612.0
2017-Nov-12 16:30N 22°12' E 114°40'713.4
2017-Nov-12 16:01N 22°12' E 114°48'713.6
2017-Nov-12 15:30N 22°12' E 114°55'713.7
2017-Nov-12 15:00N 22°13' E 115°02'713.7
2017-Nov-12 14:30N 22°13' E 115°10'713.8
2017-Nov-12 14:00N 22°14' E 115°17'  
2017-Nov-10 00:08N 30°35' E 122°08'3 0.1
2017-Nov-08 19:14N 30°37' E 122°04'1 2.3
2017-Nov-08 19:00N 30°36' E 122°05'3 5.4
2017-Nov-08 18:29N 30°35' E 122°08'  
Track history (hours):
 
Tides and Currents Weather Stations Pressure Air Temp Water Temp Dewpoint Dewpoint Depression Visibility Wind Speed Wind Dir Waves Ship Positions

Thalassa Hellas

Last reported at 2017-Nov-16 16:14 UTC. Time now 2017-Nov-24 16:54 UTC.
Position N 01°22' E 103°14'.
Warning: this ship's position is 8 days out of date.

Length 368 m; draft 14.2 m.

Type: Ship (hazmat cat A). MMSI: 563377000.

Date/timePositionNaut miles runAvg speedWind from/ knotsBaromVisibWave heightAir tempDewpointWater temp
2017-Nov-16 16:14N 01°22' E 103°14'518.5
2017-Nov-16 15:56N 01°19' E 103°18'818.2
2017-Nov-16 15:30N 01°15' E 103°25'917.6
2017-Nov-16 15:00N 01°12' E 103°33'713.4
2017-Nov-16 14:30N 01°11' E 103°40'612.9
2017-Nov-16 14:00N 01°10' E 103°46'714.0
2017-Nov-16 13:30N 01°12' E 103°52'815.3
2017-Nov-16 13:00N 01°15' E 103°59'816.3
2017-Nov-16 12:30N 01°16' E 104°08'714.5
2017-Nov-16 12:01N 01°18' E 104°15'  
2017-Nov-13 02:00N 22°35' E 114°17'0 0.0
2017-Nov-13 01:27N 22°35' E 114°17'0 0.0
2017-Nov-13 01:00N 22°35' E 114°17'0 0.0
2017-Nov-13 00:30N 22°35' E 114°17'0 0.0
2017-Nov-13 00:00N 22°35' E 114°17'0 0.1
2017-Nov-12 23:27N 22°35' E 114°17'0 0.1
2017-Nov-12 23:00N 22°35' E 114°17'0 0.1
2017-Nov-12 22:27N 22°35' E 114°17'0 0.1
2017-Nov-12 22:00N 22°35' E 114°17'0 0.0
2017-Nov-12 21:30N 22°35' E 114°17'0 0.0
2017-Nov-12 20:57N 22°35' E 114°17'0 0.0
2017-Nov-12 20:27N 22°35' E 114°17'0 0.1
2017-Nov-12 20:00N 22°35' E 114°17'3 5.3
2017-Nov-12 19:30N 22°34' E 114°19'612.4
2017-Nov-12 19:00N 22°31' E 114°25'5 9.9
2017-Nov-12 18:30N 22°27' E 114°28'611.5
2017-Nov-12 18:00N 22°21' E 114°31'2 4.5
2017-Nov-12 17:30N 22°20' E 114°33'5 9.4
2017-Nov-12 17:00N 22°17' E 114°36'612.0
2017-Nov-12 16:30N 22°12' E 114°40'713.4
2017-Nov-12 16:01N 22°12' E 114°48'713.6
2017-Nov-12 15:30N 22°12' E 114°55'713.7
2017-Nov-12 15:00N 22°13' E 115°02'713.7
2017-Nov-12 14:30N 22°13' E 115°10'713.8
2017-Nov-12 14:00N 22°14' E 115°17'  
2017-Nov-10 00:08N 30°35' E 122°08'3 0.1
2017-Nov-08 19:14N 30°37' E 122°04'1 2.3
2017-Nov-08 19:00N 30°36' E 122°05'3 5.4
2017-Nov-08 18:29N 30°35' E 122°08'  

Dump ship's entire track history